Time;durP1;ratioP1;P1;durP2;ratioP2;P2;SDS_P1;SDS_P2;PMS_P1;PMS_P2;Temp;Humidity;BMP_temperature;BMP_pressure;BME280_temperature;BME280_humidity;BME280_pressure;Samples;Min_cycle;Max_cycle;Signal;HPM_P1;HPM_P2
2023/08/10 00:00:11;;;;;;;5.18;2.78;;;13.40;99.90;;;;;;5043912;28;20098;-82
2023/08/10 00:02:37;;;;;;;4.13;2.90;;;13.40;99.90;;;;;;5012723;28;20029;-82
2023/08/10 00:05:05;;;;;;;4.10;2.75;;;13.40;99.90;;;;;;5060838;23;20504;-88
2023/08/10 00:07:31;;;;;;;7.80;2.90;;;13.30;99.90;;;;;;5037214;28;20032;-89
2023/08/10 00:09:57;;;;;;;3.72;2.67;;;13.30;99.90;;;;;;5053113;28;20025;-88
2023/08/10 00:12:23;;;;;;;6.63;3.50;;;13.30;99.90;;;;;;5053175;28;20028;-88
2023/08/10 00:14:48;;;;;;;5.90;2.70;;;13.30;99.90;;;;;;5056353;28;20092;-89
2023/08/10 00:17:16;;;;;;;3.42;2.67;;;13.30;99.90;;;;;;5053120;28;20095;-88
2023/08/10 00:19:42;;;;;;;7.78;2.70;;;13.20;99.90;;;;;;5067050;28;20394;-88
2023/08/10 00:22:08;;;;;;;4.80;3.03;;;13.20;99.90;;;;;;5052805;28;20485;-88
2023/08/10 00:24:33;;;;;;;3.22;2.42;;;13.10;99.90;;;;;;5052882;28;20127;-88
2023/08/10 00:26:59;;;;;;;3.67;2.42;;;13.10;99.90;;;;;;5052914;28;20029;-88
2023/08/10 00:29:24;;;;;;;6.20;3.15;;;13.10;99.90;;;;;;5052774;28;20025;-90
2023/08/10 00:31:50;;;;;;;5.82;3.38;;;13.10;99.90;;;;;;5052966;28;20088;-89
2023/08/10 00:34:16;;;;;;;3.78;2.70;;;13.10;99.90;;;;;;5042434;28;20017;-89
2023/08/10 00:36:42;;;;;;;7.25;3.40;;;13.00;99.90;;;;;;5051459;28;20028;-89
2023/08/10 00:39:07;;;;;;;3.53;2.78;;;13.00;99.90;;;;;;5052473;28;20025;-89
2023/08/10 00:41:33;;;;;;;5.40;3.50;;;13.00;99.90;;;;;;5052412;28;20025;-89
2023/08/10 00:43:59;;;;;;;2.88;2.40;;;13.00;99.90;;;;;;5052669;28;20033;-88
2023/08/10 00:46:26;;;;;;;3.97;2.40;;;13.00;99.90;;;;;;5058753;28;20101;-89
2023/08/10 00:48:52;;;;;;;3.88;2.83;;;12.90;99.90;;;;;;5052777;28;20017;-88
2023/08/10 00:51:18;;;;;;;11.48;3.92;;;12.90;99.90;;;;;;5051012;28;20017;-88
2023/08/10 00:53:44;;;;;;;3.75;2.45;;;12.90;99.90;;;;;;5034504;28;20117;-88
2023/08/10 00:56:11;;;;;;;3.65;2.40;;;12.80;99.90;;;;;;5059489;28;20025;-88
2023/08/10 00:58:37;;;;;;;3.53;2.67;;;12.90;99.90;;;;;;5052497;28;20051;-88
2023/08/10 01:01:04;;;;;;;3.40;2.55;;;12.90;99.90;;;;;;5059064;28;20039;-89
2023/08/10 01:03:30;;;;;;;3.97;2.65;;;12.80;99.90;;;;;;5052856;28;20060;-89
2023/08/10 01:06:09;;;;;;;5.85;2.75;;;12.80;99.90;;;;;;5063661;22;20094;-82
2023/08/10 01:08:49;;;;;;;3.70;2.10;;;12.80;99.90;;;;;;5054211;28;20033;-83
2023/08/10 01:11:36;;;;;;;3.97;2.70;;;12.70;99.90;;;;;;5053781;28;20115;-82
2023/08/10 01:14:12;;;;;;;4.68;2.65;;;12.70;99.90;;;;;;5054254;28;20025;-82
2023/08/10 01:16:41;;;;;;;3.13;2.47;;;12.70;99.90;;;;;;5035210;28;20017;-82
2023/08/10 01:19:23;;;;;;;4.47;2.47;;;12.60;99.90;;;;;;5053509;28;20063;-83
2023/08/10 01:21:50;;;;;;;;;;;12.60;99.90;;;;;;5039841;28;20028;-83
2023/08/10 01:24:23;;;;;;;3.63;2.25;;;12.60;99.90;;;;;;5029104;28;19991;-82
2023/08/10 01:26:51;;;;;;;5.35;2.78;;;12.60;99.90;;;;;;5052553;28;20382;-83
2023/08/10 01:29:19;;;;;;;5.15;2.65;;;12.60;99.90;;;;;;5053145;28;20017;-83
2023/08/10 01:31:44;;;;;;;4.70;2.92;;;12.50;99.90;;;;;;5053057;28;20481;-82
2023/08/10 01:34:10;;;;;;;4.50;2.40;;;12.60;99.90;;;;;;5052884;28;20520;-82
2023/08/10 01:36:36;;;;;;;3.28;2.60;;;12.60;99.90;;;;;;5052606;28;20032;-83
2023/08/10 01:39:02;;;;;;;8.93;2.75;;;12.50;99.90;;;;;;5052222;28;20047;-82
2023/08/10 01:41:28;;;;;;;6.65;2.67;;;12.50;99.90;;;;;;5052787;28;20033;-82
2023/08/10 01:43:53;;;;;;;5.53;2.83;;;12.50;99.90;;;;;;5034882;28;20021;-82
2023/08/10 01:46:21;;;;;;;9.98;3.05;;;12.40;99.90;;;;;;5034260;28;20020;-82
2023/08/10 01:48:52;;;;;;;5.07;2.92;;;12.50;99.90;;;;;;5052323;28;20024;-83
2023/08/10 01:51:19;;;;;;;;;;;12.40;99.90;;;;;;5034634;28;20102;-83
2023/08/10 01:53:47;;;;;;;8.70;2.83;;;12.40;99.90;;;;;;5049238;28;20579;-82
2023/08/10 01:56:13;;;;;;;4.00;3.08;;;12.40;99.90;;;;;;5033094;28;20132;-83
2023/08/10 01:58:39;;;;;;;4.18;3.45;;;12.30;99.90;;;;;;5048926;28;20082;-82
2023/08/10 02:01:05;;;;;;;5.97;3.08;;;12.20;99.90;;;;;;5052192;28;20032;-82
2023/08/10 02:03:31;;;;;;;4.28;2.80;;;12.20;99.90;;;;;;5052442;28;20106;-83
2023/08/10 02:05:57;;;;;;;4.47;3.30;;;12.20;99.90;;;;;;5064878;22;20038;-88
2023/08/10 02:08:22;;;;;;;3.97;2.65;;;12.20;99.90;;;;;;5074817;28;20071;-88
2023/08/10 02:10:48;;;;;;;3.42;2.42;;;12.20;99.90;;;;;;5071484;28;20020;-88
2023/08/10 02:13:13;;;;;;;4.00;2.55;;;12.20;99.90;;;;;;5074231;28;20034;-90
2023/08/10 02:15:42;;;;;;;4.68;2.63;;;12.10;99.90;;;;;;5065950;28;20021;-90
2023/08/10 02:18:09;;;;;;;3.47;2.60;;;12.10;99.90;;;;;;5055026;28;20024;-89
2023/08/10 02:20:35;;;;;;;6.30;2.80;;;12.10;99.90;;;;;;5036308;28;20124;-89
2023/08/10 02:23:01;;;;;;;8.05;3.00;;;12.20;99.90;;;;;;5054329;28;20116;-89
2023/08/10 02:25:26;;;;;;;6.75;2.67;;;12.10;99.90;;;;;;5053931;28;20051;-89
2023/08/10 02:27:52;;;;;;;3.53;2.58;;;12.10;99.90;;;;;;5054173;28;20056;-88
2023/08/10 02:30:19;;;;;;;4.50;2.42;;;12.10;99.90;;;;;;5044554;28;20045;-88
2023/08/10 02:32:44;;;;;;;4.13;2.90;;;12.10;99.90;;;;;;5036451;28;20017;-89
2023/08/10 02:35:10;;;;;;;5.05;2.80;;;12.10;99.90;;;;;;5053997;28;20036;-89
2023/08/10 02:37:37;;;;;;;3.72;2.47;;;12.10;99.90;;;;;;5036299;28;20488;-88
2023/08/10 02:40:07;;;;;;;5.85;2.60;;;12.00;99.90;;;;;;5053853;28;20393;-89
2023/08/10 02:42:33;;;;;;;5.85;2.70;;;11.90;99.90;;;;;;5035410;28;20055;-91
2023/08/10 02:44:58;;;;;;;4.72;2.58;;;11.90;99.90;;;;;;5053652;28;20064;-88
2023/08/10 02:47:24;;;;;;;4.07;2.28;;;11.90;99.90;;;;;;5036238;28;20052;-89
2023/08/10 02:49:50;;;;;;;3.58;2.50;;;11.90;99.90;;;;;;5053911;28;20033;-88
2023/08/10 02:52:16;;;;;;;5.18;2.67;;;11.80;99.90;;;;;;5053396;28;20493;-91
2023/08/10 02:54:41;;;;;;;4.32;2.58;;;11.90;99.90;;;;;;5053885;28;20021;-88
2023/08/10 02:57:07;;;;;;;5.10;2.80;;;11.90;99.90;;;;;;5035500;28;20037;-88
2023/08/10 02:59:33;;;;;;;4.20;2.55;;;11.80;99.90;;;;;;5053201;28;20033;-89
2023/08/10 03:01:58;;;;;;;3.55;2.40;;;11.70;99.90;;;;;;5036183;28;20037;-89
2023/08/10 03:04:24;;;;;;;2.85;2.40;;;11.70;99.90;;;;;;5053841;28;20026;-89
2023/08/10 03:06:50;;;;;;;4.72;2.08;;;11.70;99.90;;;;;;5035522;28;20166;-90
2023/08/10 03:09:16;;;;;;;5.05;2.55;;;11.70;99.90;;;;;;5039845;28;20025;-89
2023/08/10 03:11:42;;;;;;;4.35;2.47;;;11.70;99.90;;;;;;5053082;28;20111;-89
2023/08/10 03:14:07;;;;;;;4.45;2.88;;;11.70;99.90;;;;;;5048688;28;20469;-89
2023/08/10 03:16:33;;;;;;;4.55;2.60;;;11.70;99.90;;;;;;5052106;28;20083;-89
2023/08/10 03:18:59;;;;;;;9.27;2.70;;;11.70;99.90;;;;;;5051603;28;20086;-91
2023/08/10 03:21:24;;;;;;;4.88;2.40;;;11.70;99.90;;;;;;5033967;28;20036;-89
2023/08/10 03:23:50;;;;;;;3.05;2.38;;;11.70;99.90;;;;;;5051473;28;20457;-90
2023/08/10 03:26:16;;;;;;;6.60;3.25;;;11.60;99.90;;;;;;5051086;28;20034;-89
2023/08/10 03:28:41;;;;;;;5.28;2.10;;;11.60;99.90;;;;;;5033400;28;20024;-89
2023/08/10 03:31:10;;;;;;;4.43;2.53;;;11.50;99.90;;;;;;5050428;28;20021;-90
2023/08/10 03:33:35;;;;;;;7.70;2.10;;;11.50;99.90;;;;;;5032270;28;20021;-91
2023/08/10 03:36:02;;;;;;;3.90;2.55;;;11.50;99.90;;;;;;5071236;22;20098;-82
2023/08/10 03:38:28;;;;;;;4.32;2.33;;;11.50;99.90;;;;;;5055277;28;20021;-82
2023/08/10 03:40:53;;;;;;;6.57;2.47;;;11.50;99.90;;;;;;5035572;28;20048;-82
2023/08/10 03:43:19;;;;;;;3.97;2.28;;;11.40;99.90;;;;;;5032539;28;20033;-81
2023/08/10 03:45:45;;;;;;;4.45;2.47;;;11.40;99.90;;;;;;5050563;28;20017;-82
2023/08/10 03:48:10;;;;;;;5.20;2.33;;;11.40;99.90;;;;;;5049789;28;20493;-82
2023/08/10 03:50:36;;;;;;;3.97;2.85;;;11.40;99.90;;;;;;5046939;28;20025;-81
2023/08/10 03:53:02;;;;;;;5.32;2.28;;;11.30;99.90;;;;;;5047649;28;20032;-81
2023/08/10 03:55:27;;;;;;;5.50;2.92;;;11.40;99.90;;;;;;5032263;28;20079;-82
2023/08/10 03:57:53;;;;;;;6.28;2.92;;;11.30;99.90;;;;;;5049983;28;20028;-82
2023/08/10 04:00:21;;;;;;;6.70;3.08;;;11.30;99.90;;;;;;5032151;28;20091;-81
2023/08/10 04:02:47;;;;;;;6.60;3.05;;;11.10;99.90;;;;;;5049983;28;20013;-82
2023/08/10 04:05:12;;;;;;;5.88;3.00;;;11.10;99.90;;;;;;5031855;28;20669;-81
2023/08/10 04:07:39;;;;;;;4.57;2.78;;;11.10;99.90;;;;;;5050165;28;20017;-82
2023/08/10 04:10:07;;;;;;;7.18;2.85;;;11.10;99.90;;;;;;5049961;28;20037;-81
2023/08/10 04:12:37;;;;;;;2.83;2.28;;;11.10;99.90;;;;;;5043238;28;20293;-81
2023/08/10 04:15:03;;;;;;;5.28;2.85;;;11.10;99.90;;;;;;5049703;28;20029;-81
2023/08/10 04:17:29;;;;;;;5.18;3.00;;;11.10;99.90;;;;;;5049332;28;20021;-82
2023/08/10 04:19:58;;;;;;;3.90;2.47;;;11.10;99.90;;;;;;5049279;28;20401;-81
2023/08/10 04:22:24;;;;;;;6.28;2.83;;;11.10;99.90;;;;;;5049450;28;20100;-81
2023/08/10 04:24:51;;;;;;;10.80;3.13;;;11.10;99.90;;;;;;5035814;28;20060;-82
2023/08/10 04:27:17;;;;;;;4.18;2.40;;;11.00;99.90;;;;;;5048331;28;20021;-82
2023/08/10 04:29:46;;;;;;;3.58;2.33;;;11.00;99.90;;;;;;5047460;28;20355;-81
2023/08/10 04:32:13;;;;;;;4.30;2.53;;;11.00;99.90;;;;;;5030056;28;20068;-82
2023/08/10 04:37:18;;;;;;;6.70;2.58;;;11.00;99.90;;;;;;5049438;28;20048;-87
2023/08/10 04:39:44;;;;;;;3.58;2.22;;;10.90;99.90;;;;;;5052520;28;20074;-87
2023/08/10 04:42:10;;;;;;;5.25;2.72;;;10.90;99.90;;;;;;5066710;28;20029;-88
2023/08/10 04:44:35;;;;;;;6.93;2.90;;;11.10;99.90;;;;;;5035503;28;20613;-88
2023/08/10 04:47:01;;;;;;;4.57;2.60;;;11.10;99.90;;;;;;5052467;28;20408;-88
2023/08/10 04:49:28;;;;;;;4.22;2.85;;;11.10;99.90;;;;;;5033587;28;20021;-90
2023/08/10 04:51:54;;;;;;;3.97;2.45;;;11.20;99.90;;;;;;5050012;28;20048;-89
2023/08/10 04:54:20;;;;;;;5.20;2.60;;;11.20;99.90;;;;;;5032410;28;20090;-90
2023/08/10 04:56:46;;;;;;;6.03;3.15;;;11.20;99.90;;;;;;5032596;28;20469;-88
2023/08/10 04:59:12;;;;;;;6.68;2.92;;;11.30;99.90;;;;;;5050107;28;20021;-88
2023/08/10 05:01:38;;;;;;;4.20;2.80;;;11.30;99.90;;;;;;5032254;28;20021;-89
2023/08/10 05:04:05;;;;;;;4.45;3.08;;;11.30;99.90;;;;;;5051860;28;20021;-89
2023/08/10 05:06:31;;;;;;;11.45;2.95;;;11.30;99.90;;;;;;5033703;28;20029;-89
2023/08/10 05:08:57;;;;;;;4.53;2.60;;;11.30;99.90;;;;;;5051728;28;20127;-87
2023/08/10 05:11:23;;;;;;;5.03;2.38;;;11.30;99.90;;;;;;5051853;28;20110;-90
2023/08/10 05:13:49;;;;;;;7.43;2.95;;;11.30;99.90;;;;;;5043229;28;20067;-87
2023/08/10 05:16:15;;;;;;;4.35;2.63;;;11.40;99.90;;;;;;5031436;28;20021;-87
2023/08/10 05:18:40;;;;;;;7.45;3.65;;;11.50;99.90;;;;;;5051696;28;20028;-88
2023/08/10 05:21:06;;;;;;;12.02;4.25;;;11.50;99.90;;;;;;5033605;28;20628;-88
2023/08/10 05:23:32;;;;;;;15.07;5.90;;;11.50;99.90;;;;;;5051487;28;20413;-88
2023/08/10 05:25:57;;;;;;;18.92;6.00;;;11.60;99.90;;;;;;5052177;28;20390;-88
2023/08/10 05:28:23;;;;;;;16.52;5.70;;;11.60;99.90;;;;;;5051509;28;20025;-88
2023/08/10 05:30:48;;;;;;;16.08;6.00;;;11.60;99.90;;;;;;5051378;28;20055;-89
2023/08/10 05:33:14;;;;;;;25.80;5.72;;;11.70;99.90;;;;;;5033958;28;20071;-89
2023/08/10 05:35:40;;;;;;;15.88;5.53;;;11.70;99.90;;;;;;5053603;23;20910;-81
2023/08/10 05:38:08;;;;;;;15.88;5.75;;;11.70;99.90;;;;;;5050376;28;20044;-81
2023/08/10 05:40:34;;;;;;;15.85;5.93;;;11.70;99.90;;;;;;5049894;28;20025;-83
2023/08/10 05:42:59;;;;;;;15.45;5.82;;;11.70;99.90;;;;;;5032084;28;20385;-81
2023/08/10 05:45:26;;;;;;;10.23;5.10;;;11.70;99.90;;;;;;5045786;28;20029;-84
2023/08/10 05:47:52;;;;;;;11.88;5.72;;;11.80;99.90;;;;;;5043553;28;20057;-83
2023/08/10 05:50:17;;;;;;;14.30;5.50;;;11.90;99.90;;;;;;5048421;28;20063;-83
2023/08/10 05:52:44;;;;;;;15.90;6.93;;;11.90;99.90;;;;;;5046538;28;20025;-83
2023/08/10 05:55:11;;;;;;;14.50;6.45;;;12.00;99.90;;;;;;5034229;28;20051;-83
2023/08/10 05:57:38;;;;;;;17.20;6.80;;;12.00;99.90;;;;;;5034308;28;20021;-83
2023/08/10 06:00:05;;;;;;;16.80;7.15;;;12.00;99.90;;;;;;5051302;28;20358;-83
2023/08/10 06:02:31;;;;;;;14.10;5.82;;;12.20;99.90;;;;;;5030079;28;20028;-83
2023/08/10 06:04:57;;;;;;;14.82;6.55;;;12.20;99.90;;;;;;5038437;28;20032;-84
2023/08/10 06:07:23;;;;;;;13.95;5.85;;;12.30;99.90;;;;;;5033990;28;20021;-83
2023/08/10 06:09:48;;;;;;;17.98;7.68;;;12.30;99.90;;;;;;5033983;28;20797;-82
2023/08/10 06:12:16;;;;;;;18.20;6.72;;;12.40;99.90;;;;;;5051853;28;20489;-83
2023/08/10 06:14:41;;;;;;;15.57;6.22;;;12.60;99.90;;;;;;5051618;28;20035;-83
2023/08/10 06:17:07;;;;;;;15.60;7.05;;;12.80;99.90;;;;;;5052270;28;20025;-83
2023/08/10 06:19:34;;;;;;;12.65;6.85;;;12.90;99.90;;;;;;5038331;28;20025;-83
2023/08/10 06:22:00;;;;;;;14.23;6.20;;;13.10;99.90;;;;;;5051171;28;20036;-82
2023/08/10 06:24:25;;;;;;;13.52;6.72;;;13.30;99.90;;;;;;5051770;28;20029;-83
2023/08/10 06:26:51;;;;;;;13.95;6.03;;;13.50;99.90;;;;;;5045404;28;20509;-82
2023/08/10 06:29:17;;;;;;;12.30;5.85;;;13.60;99.90;;;;;;5051792;28;20025;-83
2023/08/10 06:31:42;;;;;;;11.48;6.07;;;13.80;99.90;;;;;;5033972;28;20025;-85
2023/08/10 06:34:09;;;;;;;9.25;5.78;;;14.10;99.90;;;;;;5052143;28;20029;-83
2023/08/10 06:36:34;;;;;;;10.88;5.65;;;14.40;99.90;;;;;;5058635;23;20056;-88
2023/08/10 06:39:01;;;;;;;12.55;6.28;;;14.70;99.90;;;;;;5047753;28;20044;-89
2023/08/10 06:41:27;;;;;;;9.75;5.88;;;14.90;99.90;;;;;;5067101;28;20032;-90
2023/08/10 06:43:52;;;;;;;9.10;5.68;;;15.10;99.90;;;;;;5046827;28;20112;-88
2023/08/10 06:46:18;;;;;;;9.25;4.45;;;15.20;99.90;;;;;;5061984;28;20029;-89
2023/08/10 06:48:43;;;;;;;7.75;5.10;;;15.20;99.90;;;;;;5066458;28;20019;-89
2023/08/10 06:51:09;;;;;;;6.13;3.95;;;15.20;99.90;;;;;;5058972;28;20107;-89
2023/08/10 06:53:35;;;;;;;8.02;4.82;;;15.30;99.90;;;;;;5049211;28;20504;-88
2023/08/10 06:56:00;;;;;;;6.47;3.85;;;15.30;99.90;;;;;;5061711;28;20017;-87
2023/08/10 06:58:26;;;;;;;5.90;4.18;;;15.30;99.90;;;;;;5061677;28;20025;-88
2023/08/10 07:00:52;;;;;;;7.15;4.20;;;15.40;99.90;;;;;;5043461;28;20405;-87
2023/08/10 07:03:17;;;;;;;6.00;4.35;;;15.40;99.90;;;;;;5061044;28;20013;-89
2023/08/10 07:05:44;;;;;;;10.05;5.22;;;15.50;99.90;;;;;;5060917;28;20090;-89
2023/08/10 07:08:09;;;;;;;8.30;6.00;;;15.50;99.90;;;;;;5067875;28;20028;-89
2023/08/10 07:10:36;;;;;;;9.82;5.50;;;15.50;99.90;;;;;;5058528;28;20061;-88
2023/08/10 07:13:02;;;;;;;8.25;5.40;;;15.60;99.90;;;;;;5045520;28;20020;-89
2023/08/10 07:15:30;;;;;;;10.25;6.07;;;15.70;99.90;;;;;;5043673;28;20031;-88
2023/08/10 07:17:55;;;;;;;7.10;5.07;;;15.80;99.90;;;;;;5068028;28;20462;-90
2023/08/10 07:20:22;;;;;;;9.32;6.20;;;15.90;99.90;;;;;;5061043;28;20032;-89
2023/08/10 07:22:48;;;;;;;9.32;6.00;;;16.00;99.90;;;;;;5061120;28;20017;-89
2023/08/10 07:25:18;;;;;;;9.07;5.63;;;16.00;99.90;;;;;;5048443;28;20050;-88
2023/08/10 07:27:45;;;;;;;7.23;5.63;;;16.10;99.90;;;;;;5058825;28;20027;-89
2023/08/10 07:30:13;;;;;;;8.82;5.53;;;16.20;99.90;;;;;;5046038;28;20297;-90
2023/08/10 07:32:39;;;;;;;8.85;4.93;;;16.30;99.90;;;;;;5043267;28;20024;-89
2023/08/10 07:37:35;;;;;;;8.68;4.90;;;16.50;99.90;;;;;;5047167;28;20033;-83
2023/08/10 07:40:02;;;;;;;6.13;3.97;;;16.70;99.90;;;;;;5051040;28;20033;-82
2023/08/10 07:42:27;;;;;;;6.70;4.57;;;16.80;99.90;;;;;;5032911;28;20025;-81
2023/08/10 07:44:53;;;;;;;7.75;4.43;;;17.00;99.90;;;;;;5033395;28;20781;-81
2023/08/10 07:47:19;;;;;;;6.57;4.25;;;17.20;99.90;;;;;;5049850;28;20101;-79
2023/08/10 07:49:44;;;;;;;9.27;5.55;;;17.20;99.90;;;;;;5050186;28;20100;-81
2023/08/10 07:52:10;;;;;;;6.78;4.93;;;17.30;99.90;;;;;;5031389;28;20112;-80
2023/08/10 07:54:36;;;;;;;10.48;5.50;;;17.40;99.90;;;;;;5021715;28;20040;-81
2023/08/10 07:57:01;;;;;;;11.73;5.07;;;17.50;99.90;;;;;;5033357;28;20022;-82
2023/08/10 07:59:27;;;;;;;7.88;4.82;;;17.60;99.90;;;;;;5036468;28;21096;-82
2023/08/10 08:01:53;;;;;;;17.23;5.45;;;17.70;99.90;;;;;;5033873;28;20540;-80
2023/08/10 08:04:19;;;;;;;10.15;5.00;;;17.80;99.90;;;;;;5040464;28;20028;-80
2023/08/10 08:06:44;;;;;;;11.57;5.03;;;18.00;99.90;;;;;;5018132;28;20489;-82
2023/08/10 08:09:12;;;;;;;10.65;5.05;;;18.10;99.90;;;;;;5030139;28;20623;-81
2023/08/10 08:11:38;;;;;;;11.10;5.03;;;18.20;99.90;;;;;;5027381;28;20029;-81
2023/08/10 08:14:04;;;;;;;8.38;3.95;;;18.40;99.90;;;;;;5046986;28;20036;-83
2023/08/10 08:16:29;;;;;;;9.18;3.67;;;18.50;99.90;;;;;;5049183;28;20064;-82
2023/08/10 08:18:55;;;;;;;3.80;2.63;;;18.60;99.90;;;;;;5049623;28;20099;-80
2023/08/10 08:21:23;;;;;;;6.50;3.40;;;18.80;99.90;;;;;;5041728;28;20037;-82
2023/08/10 08:23:50;;;;;;;6.20;3.28;;;18.90;99.90;;;;;;5043847;28;20489;-82
2023/08/10 08:26:17;;;;;;;5.70;3.15;;;19.10;99.90;;;;;;5040512;28;20029;-78
2023/08/10 08:28:47;;;;;;;4.32;2.58;;;19.20;99.90;;;;;;5039998;28;20081;-81
2023/08/10 08:31:13;;;;;;;9.13;3.15;;;19.30;99.90;;;;;;5048738;28;20112;-83
2023/08/10 08:33:41;;;;;;;3.63;2.17;;;19.50;99.90;;;;;;5041018;28;20025;-83
2023/08/10 08:36:08;;;;;;;4.63;2.15;;;19.60;99.90;;;;;;5029565;28;20521;-80
2023/08/10 08:38:37;;;;;;;3.72;2.60;;;19.80;99.90;;;;;;5038545;28;20108;-82
2023/08/10 08:41:05;;;;;;;10.00;3.80;;;19.90;99.90;;;;;;5045782;28;20029;-82
2023/08/10 08:43:33;;;;;;;4.85;2.78;;;20.10;99.90;;;;;;5041616;28;20074;-82
2023/08/10 08:46:00;;;;;;;6.07;2.35;;;20.40;99.90;;;;;;5047071;28;20028;-78
2023/08/10 08:48:27;;;;;;;5.00;1.83;;;20.80;99.90;;;;;;5042528;28;20485;-80
2023/08/10 08:50:54;;;;;;;3.85;1.98;;;21.30;99.00;;;;;;5038679;28;20028;-81
2023/08/10 08:53:20;;;;;;;4.10;1.65;;;21.60;96.10;;;;;;5043868;28;20025;-81
2023/08/10 08:55:46;;;;;;;11.65;2.30;;;21.90;91.00;;;;;;5033370;28;20025;-82
2023/08/10 08:58:17;;;;;;;5.47;1.85;;;22.30;94.00;;;;;;5021579;28;20029;-82
2023/08/10 09:00:52;;;;;;;3.03;1.58;;;22.70;92.50;;;;;;5022881;28;20075;-81
2023/08/10 09:03:23;;;;;;;3.08;1.90;;;23.10;91.20;;;;;;5029914;28;20064;-81
2023/08/10 09:05:50;;;;;;;3.83;1.65;;;23.20;88.30;;;;;;5038036;28;20109;-82
2023/08/10 09:08:18;;;;;;;3.90;1.50;;;23.10;89.20;;;;;;5034846;28;20025;-82
2023/08/10 09:10:46;;;;;;;2.05;1.60;;;23.00;87.30;;;;;;5040198;28;20475;-81
2023/08/10 09:13:23;;;;;;;6.18;1.95;;;23.00;90.10;;;;;;5042535;28;20128;-82
2023/08/10 09:16:12;;;;;;;3.67;1.50;;;23.30;89.20;;;;;;5027356;28;20047;-83
2023/08/10 09:18:42;;;;;;;6.22;2.15;;;23.90;85.90;;;;;;5016187;28;20045;-83
2023/08/10 09:21:17;;;;;;;5.68;1.65;;;24.40;82.20;;;;;;5025772;28;20052;-81
2023/08/10 09:23:46;;;;;;;3.28;1.63;;;24.60;82.90;;;;;;5013244;28;20676;-81
2023/08/10 09:26:17;;;;;;;2.85;1.80;;;24.90;76.50;;;;;;5039437;28;20087;-83
2023/08/10 09:28:44;;;;;;;4.20;1.80;;;24.70;76.40;;;;;;5040384;28;20068;-81
2023/08/10 09:31:11;;;;;;;5.43;1.58;;;24.20;78.80;;;;;;5036178;28;20033;-81
2023/08/10 09:33:39;;;;;;;4.68;1.50;;;24.10;83.80;;;;;;5038042;28;20033;-81
2023/08/10 09:36:08;;;;;;;5.28;2.10;;;24.10;85.30;;;;;;5037392;28;20021;-81
2023/08/10 09:38:35;;;;;;;5.40;1.40;;;24.20;82.50;;;;;;5014633;28;20025;-80
2023/08/10 09:41:15;;;;;;;4.20;1.58;;;24.20;83.70;;;;;;5046280;28;20041;-82
2023/08/10 09:43:43;;;;;;;5.45;1.35;;;24.40;80.40;;;;;;5037294;28;20025;-81
2023/08/10 09:46:10;;;;;;;4.03;1.55;;;24.70;79.60;;;;;;5046725;28;20032;-81
2023/08/10 09:48:44;;;;;;;7.63;1.90;;;25.10;77.90;;;;;;5040690;28;20104;-81
2023/08/10 09:51:11;;;;;;;3.80;1.50;;;25.50;75.10;;;;;;5045087;28;20104;-84
2023/08/10 09:53:37;;;;;;;2.10;1.30;;;25.90;80.30;;;;;;5051302;28;20100;-83
2023/08/10 09:56:07;;;;;;;3.85;1.58;;;26.10;77.20;;;;;;5051206;28;20544;-83
2023/08/10 09:58:36;;;;;;;6.28;1.65;;;26.50;77.50;;;;;;5029595;28;20024;-83
2023/08/10 10:01:03;;;;;;;3.65;1.60;;;26.80;70.90;;;;;;5050036;28;20040;-85
2023/08/10 10:03:31;;;;;;;2.38;1.40;;;27.20;71.40;;;;;;5051151;28;20432;-85
2023/08/10 10:05:57;;;;;;;2.53;1.30;;;27.30;68.50;;;;;;5050410;28;20496;-84
2023/08/10 10:08:32;;;;;;;3.75;1.60;;;27.00;71.40;;;;;;5036192;28;20017;-84
2023/08/10 10:11:00;;;;;;;8.70;1.40;;;26.80;70.00;;;;;;5041234;28;20111;-83
2023/08/10 10:13:27;;;;;;;5.18;1.50;;;26.60;72.60;;;;;;5029996;28;20224;-84
2023/08/10 10:15:56;;;;;;;5.55;1.70;;;26.50;71.60;;;;;;5032124;28;20031;-83
2023/08/10 10:18:25;;;;;;;8.52;1.77;;;25.80;71.50;;;;;;5035980;28;20496;-85
2023/08/10 10:20:52;;;;;;;6.68;2.13;;;25.90;74.50;;;;;;5046388;28;20033;-85
2023/08/10 10:23:20;;;;;;;5.00;1.70;;;26.10;73.90;;;;;;5031625;28;20032;-85
2023/08/10 10:26:10;;;;;;;2.88;1.75;;;26.70;75.40;;;;;;5031285;28;20016;-85
2023/08/10 10:28:36;;;;;;;2.25;1.48;;;28.20;70.20;;;;;;5040757;28;20682;-85
2023/08/10 10:31:04;;;;;;;6.50;1.60;;;28.70;65.70;;;;;;5047845;28;20460;-84
2023/08/10 10:33:32;;;;;;;4.47;1.50;;;28.40;64.70;;;;;;5048973;28;20029;-85
2023/08/10 10:36:15;;;;;;;6.10;1.60;;;28.80;62.20;;;;;;5035967;28;20049;-86
2023/08/10 10:38:49;;;;;;;5.22;1.77;;;29.30;63.50;;;;;;5022920;28;20032;-85
2023/08/10 10:41:17;;;;;;;3.78;1.20;;;31.00;64.30;;;;;;5026969;28;20045;-84
2023/08/10 10:43:44;;;;;;;5.43;1.80;;;32.00;56.70;;;;;;5050536;28;20017;-83
2023/08/10 10:46:40;;;;;;;5.63;1.83;;;32.10;53.50;;;;;;5043669;28;20074;-84
2023/08/10 10:49:11;;;;;;;3.97;1.52;;;31.80;56.40;;;;;;5033457;28;20063;-83
2023/08/10 10:51:51;;;;;;;2.78;1.30;;;31.70;54.00;;;;;;5046106;28;20025;-83
2023/08/10 10:54:16;;;;;;;3.80;1.23;;;31.20;53.40;;;;;;5045654;28;20029;-84
2023/08/10 10:56:42;;;;;;;3.33;1.58;;;30.90;57.50;;;;;;5049184;28;20021;-84
2023/08/10 10:59:08;;;;;;;4.07;1.50;;;31.30;55.90;;;;;;5050001;28;20033;-85
2023/08/10 11:01:34;;;;;;;4.85;1.58;;;31.40;52.00;;;;;;5028040;28;20462;-84
2023/08/10 11:04:00;;;;;;;3.35;1.20;;;31.70;52.30;;;;;;5050327;28;20386;-85
2023/08/10 11:06:26;;;;;;;3.63;1.35;;;31.90;52.20;;;;;;5045172;28;20016;-84
2023/08/10 11:08:56;;;;;;;3.47;1.55;;;32.30;55.90;;;;;;5050091;28;20377;-86
2023/08/10 11:11:23;;;;;;;4.22;1.60;;;33.40;52.80;;;;;;5029112;28;20033;-86
2023/08/10 11:13:52;;;;;;;4.00;1.63;;;34.80;50.60;;;;;;5049928;28;20047;-84
2023/08/10 11:16:21;;;;;;;2.97;1.63;;;35.60;44.70;;;;;;5027289;28;20464;-85
2023/08/10 11:18:48;;;;;;;6.93;2.15;;;36.30;43.60;;;;;;5032421;28;20033;-87
2023/08/10 11:21:15;;;;;;;4.10;1.50;;;36.70;43.40;;;;;;5047796;28;20033;-90
2023/08/10 11:23:41;;;;;;;4.78;1.98;;;36.40;42.50;;;;;;5032623;28;20095;-86
2023/08/10 11:26:08;;;;;;;2.33;1.50;;;37.20;40.80;;;;;;5031278;28;20555;-84
2023/08/10 11:28:34;;;;;;;2.00;1.40;;;37.50;42.00;;;;;;5046512;28;20026;-83
2023/08/10 11:31:09;;;;;;;3.42;1.50;;;38.30;40.80;;;;;;5042728;28;20105;-84
2023/08/10 11:33:35;;;;;;;2.65;1.40;;;38.70;40.70;;;;;;5030558;28;20794;-84
2023/08/10 11:36:00;;;;;;;1.80;1.42;;;39.30;39.40;;;;;;5028933;28;20145;-85
2023/08/10 11:38:26;;;;;;;4.28;1.38;;;38.60;39.40;;;;;;5009678;28;20593;-86
2023/08/10 11:40:57;;;;;;;3.03;1.35;;;37.80;38.60;;;;;;5011470;28;20158;-85
2023/08/10 11:43:25;;;;;;;3.42;1.50;;;37.00;41.80;;;;;;5008369;28;20045;-84
2023/08/10 11:45:53;;;;;;;7.18;1.65;;;37.30;41.30;;;;;;5011832;28;20406;-83
2023/08/10 11:48:19;;;;;;;5.72;2.03;;;36.60;43.90;;;;;;5027720;28;20100;-85
2023/08/10 11:50:45;;;;;;;1.92;1.50;;;35.60;41.60;;;;;;5011338;28;20141;-84
2023/08/10 11:53:19;;;;;;;4.32;1.98;;;35.50;42.10;;;;;;5050627;28;20032;-84
2023/08/10 11:55:53;;;;;;;5.40;2.22;;;34.30;42.10;;;;;;5017381;28;20031;-86
2023/08/10 11:58:19;;;;;;;3.72;1.58;;;33.80;42.10;;;;;;5049611;28;20462;-87
2023/08/10 12:00:51;;;;;;;4.80;1.80;;;32.80;45.80;;;;;;5039816;28;20033;-84
2023/08/10 12:03:27;;;;;;;2.95;1.83;;;32.40;46.20;;;;;;5039614;28;20049;-83
2023/08/10 12:06:04;;;;;;;2.85;1.67;;;32.00;50.80;;;;;;5021298;28;20186;-84
2023/08/10 12:08:32;;;;;;;2.83;2.00;;;31.50;48.10;;;;;;5030286;28;20017;-82
2023/08/10 12:11:08;;;;;;;2.83;2.00;;;31.10;46.30;;;;;;5039876;28;20158;-82
2023/08/10 12:13:48;;;;;;;3.67;2.03;;;31.00;50.40;;;;;;5050169;28;20473;-83
2023/08/10 12:16:16;;;;;;;3.97;1.83;;;31.00;50.40;;;;;;5047705;28;20505;-83
2023/08/10 12:18:42;;;;;;;2.13;1.60;;;31.30;50.70;;;;;;5050321;28;20025;-83
2023/08/10 12:21:08;;;;;;;4.00;1.80;;;31.40;50.20;;;;;;5022425;28;20048;-85
2023/08/10 12:23:34;;;;;;;3.47;1.92;;;32.00;49.20;;;;;;5049725;28;20032;-83
2023/08/10 12:25:59;;;;;;;2.72;1.88;;;32.20;47.20;;;;;;5046312;28;20111;-84
2023/08/10 12:28:25;;;;;;;3.08;1.70;;;32.30;48.90;;;;;;5029040;28;20021;-84
2023/08/10 12:30:51;;;;;;;2.60;1.80;;;32.50;49.70;;;;;;5037912;28;20151;-87
2023/08/10 12:33:18;;;;;;;2.08;1.73;;;32.40;48.30;;;;;;5050025;28;20020;-84
2023/08/10 12:35:43;;;;;;;2.63;1.98;;;31.50;49.50;;;;;;5047847;28;20074;-85
2023/08/10 12:38:09;;;;;;;8.55;1.90;;;30.80;50.50;;;;;;5031463;28;20017;-85
2023/08/10 12:40:36;;;;;;;3.20;1.70;;;30.70;52.10;;;;;;5014032;28;20034;-85
2023/08/10 12:43:03;;;;;;;4.07;2.15;;;30.40;52.70;;;;;;5048712;28;20025;-86
2023/08/10 12:45:28;;;;;;;3.25;1.90;;;30.10;49.40;;;;;;5039637;28;20048;-85
2023/08/10 12:47:55;;;;;;;2.30;1.90;;;29.60;52.30;;;;;;5046874;28;20025;-86
2023/08/10 12:50:23;;;;;;;1.88;1.70;;;29.90;52.90;;;;;;5044934;28;20354;-83